© 2014 by Franz.Schwengler www.schwengler.de / impressum

Lauftermine in Mittelfranken und Umgebung 2014/2015

(Termin-Infos bitte mailen an: Franz.Schwengler@Planet-Marathon.de)
         
Datum Diskussionsforum: Lauftreff-Franken Forum PLZ Ort Strecken in km
         
  auf Facebook: LAUF NORIS LAUF - Franken rennt      
         
  2014      
         
Juli        
04.07.2014 2. Buttenheimer Deichselbach-Lauf" 96155 Buttenheim 10,0 / 5,0
04.07.2014 13. Krankenhauslauf Kitzingen 97318 Kitzingen 13,8 / 6,9
05.07.2014 17. Illschwanger Dorflauf 92278 Illschwang 8,3 / 5,0
05.07.2014 2. Bamberger Uni-Lauf 96047 Bamberg 10,0
06.07.2014 1. Urbanian Run Nürnberg 90471 Nürnberg 10,0
06.07.2014 11. Tanzenhaider Weiherlauf 91097 Oberreichenbach 10,0 / 3,0
06.07.2014 17. Neuendettelsauer Kirchweihlauf 91564 Neuendettelsau 6,7
06.07.2014 1. Altmühltrail 91757 Treuchtlingen 22,0
06.07.2014 34. VR-Bank-Lauf "Rund um die Fränkische Krone" 96450 Coburg 10,0
09.07.2014 10. Ansbacher Läufertag (in Leutershausen) 91522 Ansbach 5,0
         
11.07.2014 2. Lauferlebnis Fränkische Schweiz Tour 2014 - 1. Etappe (19:30) 91353 Hausen 12,8
12.07.2014 2. Lauferlebnis Fränkische Schweiz Tour 2014 - 2. Etappe (08:30) 91346 Streitberg 17,2
12.07.2014 2. Lauferlebnis Fränkische Schweiz Tour 2014 - 3. Etappe (19:30) 91077 Hetzles 12,1
13.07.2014 2. Lauferlebnis Fränkische Schweiz Tour 2014 - 4. Etappe (08:30) 91330 Eggolsheim 8,5
13.07.2014 2. Lauferlebnis Fränkische Schweiz Tour 2014 - 5. Etappe (15:45) 91352 Willersdorf 6,7
         
11.07.2014 5. Hambach Night Run 97456 Hambach 15,6 / 8,0
12.07.2014 2. Petersberg Berg-Crosslauf 91613 Marktbergel 10,0
12.07.2014 30. Altmühlfrankenlauf (Staffellauf in 12 Etappen) 91781 Weißenburg Staffel-Lauf
12.07.2014 14. Fichtelgebirgsmarathon 95163 Weißenstadt 42,2 / 21,1
12.07.2014 7. Kappelseelauf in Rentweinsdorf 96184 Rentweinsdorf 11,6 / 5,5
13.07.2014 27. Altdorfer Wallenstein Halbmarathon 90518 Altdorf 21,1 / 12,1
14.07.2014 12. Sonnefelder Viertelmarathon 96242 Sonnefeld 10,5 / 4,8
16.07.2014 6. Volks- und Raiffeisenbank Amberg-Sulzbacher Firmenlauf 92224 Amberg 5,0
17.07.2014 5. Nürnberger Friedenslauf (Schülerlauf) 90443 Nürnberg Rundenlauf
18.07.2014 30. Schwanberglauf von Iphofen nach Castell 97346 Iphofen 10,4
19.07.2014 1. FIVE Run 90587 Veitsbronn 10,0
19.07.2014 2. Challenge Woman 5km Lauf und Walk 91143 Roth 5,0
19.07.2014 20. Altmühlsee-Halbmarathon 91710 Gunzenhausen-Unterwurmbach 21,1 / 7,4
19.07.2014 9. VR-Bank Run and Bike Team-Marathon 96450 Coburg 42,195
20.07.2014 13. DATEV Challenge Roth (mit Marathon in der Staffel) 91143 Roth 42,195
22.07.2014 4. B2RUN Nürnberg (10. Firmenlauf der Metropolregion Nürnberg) 90409 Nürnberg 6,0
24.07.2014 5. Fischer Automobile Neumarkter Firmenlauf 92308 Neumarkt 5,0
27.07.2014 5. Altenfurter Boulevardlauf 90475 Nürnberg-Altenfurt 10,0 / 5,0
26.07.2014 26. Allersberger Kirchweihlauf 90584 Allersberg 10,0 / 5,0
26.07.2014 4. Fürther Gourmet-Lauf 90768 Fürth 10,0
26.07.2014 29. Hochstraßenlaufdes Heimatvereins Weisendorf e.V. 91085 Weisendorf 10,0 / 4,5
26.07.2014 5. Eintracht-Benefizlauf zum Kattenhochstatter Sommerfest 91782 Kattenhochstatt 10,0 / 6,0
26.07.2014 8. Weidener Night-Run 92637 Weiden 10,0 / 5,0
26.07.2014 30. Sparkassen Adam-Riese-Stadtlauf 96231 Bad Staffelstein 10,0
27.07.2014 5. Neunkirchner Brandbach-Lauf 91077 Neunkirchen am Brand 10,0
27.07.2014 6. Einsiedel Waldlauf 97261 Güntersleben 12,0 / 7,0
August        
01.08.2014 9. Hesselberg-Berglauf in Ehingen 91725 Ehingen 6,5
03.08.2014 14. Hilpoltsteiner Burgfestlauf 91161 Hilpoltstein 7,6 / 3,8
03.08.2014 5. Kapellenlauf Vorra 96158 Vorra 21,1 / 10,55
10.08.2014 14. Rother Kirchweihlauf 91143 Roth 10,0 / 4,0
15.08.2014 32. Gäuboden-Volksfest-Lauf 94315 Straubing 10,0
16.08.2014 6. Paneuropa Halbmarathon 92539 Schönsee 21,1
17.08.2014 1. Rats-Runners Urban Run Weissenburg 91781 Weissenburg 20,0 / 10,0
24.08.2014 1. Nürnberger Halbmarathon (ehem. Finish Line Herbstlauf) 90403 Nürnberg 21,1 / 10,0
24.08.2014 37. "Lu-Lauf" Halbmarathon 94333 Geiselhöring 21,1 / 10,5
31.08.2014 43. Aurachtallauf Herzogenaurach 91074 Herzogenaurach 10,0 / 4,4
September        
06.09.2014 35. Fichtelsee-Lauf (Gruppenlauf) 95632 Bad Alexanderbad 36,0 / 12,0
07.09.2014 15. Fränkische-Schweiz Marathon 91320 Ebermannstadt 42,2 / 16,0
12.09.2014 12. Erlanger Nachtlauf 91054 Erlangen 11,7 / 7,8 / 3,9
12.09.2014 15. Ipsheimer Weinbergslauf 91472 Ipsheim 5,8
13.09.2014 28. Erlangen Arcaden-Lauf in die Mönau 91056 Erlangen 10,0 / 5,0
13.09.2014 14. Schwarzenbacher Ausdauertage 95126 Schwarzenbach 21,1 / 10,0
13.09.2014 12. PEMA Sechs-Stunden-Lauf 95163 Weissenstadt 6-h Lauf
13.09.2014 4. Preppachtal-Lauf 96106 Unterpreppach 12,5
14.09.2014 14. "Rund um Rannungen" 97517 Rannungen 21,1 / 10,0
20.09.2014 13. Mönchshof Kessellauf in Kulmbach 95326 Kulmbach 14,3 / 7,2
20.09.2014 5. WOLFSMAN Geiselwind (Hindernis-Extremlauf) 96160 Geiselwind 10,0
20.09.2014 6. Kemmerner Kuckucks-Lauf 96164 Kemmern 10,0 / 4,0
21.09.2014 4. Seenlandmarathon 91785 Pleinfeld 42,2 / 21,1
26.09.2014 4. ERH-Vital-Lauf 91085 Weisendorf 10,0 / 6,6
27.09.2014 1. RUNTERRA (Extrem Hindernislauf) 90513 Zirndorf 21,0 / 14,0 / 7,0
27.09.2014 11. Burgen- und Schlösser-Lauf 92268 Kirchenreinbach 3-Etappen-Lauf
27.09.2014 4. 2 Städtelauf Merkendorf - Wolframs-Eschenbach 91732 Merkendorf 21,1 / 10,0 / 6,3
27.09.2014 1. Maintal-Ultratrail 97209 Veitshöchheim 62,0 / 28,0
27.09.2014 9. Wiesentheider Kirchweihlauf 97353 Wiesentheid 10,0 / 5,0
28.09.2014 22. Stadtlauf "10 km von Röthenbach" 90552 Röthenbach 10,0
Oktober        
03.10.2014 19. Nürnberger Stadtlauf 90403 Nürnberg 21,1 / 10,5 / 6,0
03.10.2014 5. Feuchtwangener Kreuzganglauf Altstadtlauf 91555 Feuchtwangen 10,0 / 3,3
03.10.2014 3. Tempel Marathon Etsdorf (nur 38,5 km !) 92272 Etsdorf 38,5 / 19,9
03.10.2014 10. Medical Park Marathon ...grenzenlos im Rodachtal 96476 Bad Rodach 42,2 / 21,1
04.10.2014 7. Hofer "Park und See Lauf" 95032 Hof 21,1 / 10,0
11.10.2014 12. Herbstlauf-Schloss-Thurn 91336 Heroldsbach 21,1 /7,0
11.10.2014 21. Obernzenner-Seelauf 91619 Obernzenn 8,7
11.10.2014 5. Weidener Fischerberg-Halbmarathon 92637 Weiden 21,1 / 13,0
11.10.2014 19. Abt-Degen-Lauf Zeil 97475 Zeil 11,0
12.10.2014 31. Fürther Kärwa-Lauf 90766 Fürth 7,5
12.10.2014 23. RIBE Schwabacher Citylauf 91126 Schwabach 21,1 / 10,0
18.10.2014 10. Jura2000 Halbmarathon 91171 Greding 21,1 / 11,0
18.10.2014 29. Steigerwald-Fackellauf 96152 Burghaslach 7,8
25.10.2014 1. Lauf der Crosslaufserie 2014 91604 Flachslanden 7,7
25.10.2014 28. Frankenwald-Lauf 95364 Ludwigschorgast 12,0
November        
01.11.2014 11. Sparkassen-Nachtlauf Neustadt/Aisch 91413 Neustadt/Aisch 9,8 / 4,3
01.11.2014 8. Sparkassen Lichterlauf 91541 Rothenburg o.d. Tauber 8,0 / 4,0
08.11.2014 10. TÜV Rheinland Indoor-Marathon Nürnberg 90431 Nürnberg 42,2 / 21,1
08.11.2014 75. Büchenbacher Waldlauf 91186 Büchenbach 11,6
08.11.2014 32. Feuchtwanger Crosslauf 91555 Feuchtwangen 8,8 / 3,8
08.11.2014 11. Amberger Ultra-Lauf (AULA 2013) 92224 Amberg Etappenlauf
08.11.2014 28. Staffelberglauf Bad Staffelstein 96231 Bad Staffelstein 3,96
08.11.2014 11. Zeiler Waldmarathon 97475 Zeil 42,2 / 21,1
09.11.2014 16. TGK Lebkuchenlauf 97318 Kitzingen 10,0
15.11.2014 10. infinity-sport Kunstweglauf Rednitzhembach 91126 Rednitzhembach 10,0 / 5,5
16.11.2014 1. Winterlaufserie am Nürnberger Dutzendteich 90403 Nürnberg 10,0
22.11.2014 Crosslauf des TSV Rohr3. Lauf zur Crossserie BLV-Kreis Mittelfranken-Süd 91189 Rohr 9,4
23.11.2014 30. Memmelsdorfer Schlosslauf 96117 Memmelsdorf 9,6
Dezember        
06.12.2014 38. Forchheimer Nikolaus-Lauf 91301 Forchheim 10,0 / 5,3
06.12.2014 Dinkelsbühler Wald- und Crosslauf 91550 Dinkelsbühl 10,4 / 3,5
07.12.2014 1. Winterlaufserie am Nürnberger Dutzendteich 90403 Nürnberg 16,0
07.12.2014 33. Nikolauslauf in Ochsenfurt 97199 Ochsenfurt 7,5
26.12.2014 33. Nürnberger Trainingsmarathon 90409 Nürnberg 1,523 - 42,195
29.12.2014 32. Schneyer Silvesterlauf 96125 Lichtenfels/Schney 8,0
31.12.2014 12. Nürnberger Silvesterlauf 90403 Nürnberg 10,0 / 5,0
31.12.2014 7. Pleinfelder Silvesterlauf 91785 Pleinfeld 9,5 / 5,1
         
  2015      
Januar        
06.01.2015 28. Kersbacher Dreikönigslauf 91301 Kersbach 12,0 / 6,0
18.01.2015 14. Dinkelsbühler Stadtlauf (Winterlauf) 91550 Dinkelsbühl 10,0 / 5,0
24.01.2015 1. Winterlaufserie am Nürnberger Dutzendteich 90403 Nürnberg 21,1
Mai        
03.05.2015 7. Bamberger Weltkulturerbe-Lauf 96052 Bamberg 21,1 / 10,9
14.05.2015 1. Charity-Lauf in Herzogenaurach 91074 Herzogenaurach  
         
www.schwengler.de

Mit Urteil vom 12. Mai 1998 hat das Landgericht Hamburg entschieden, dass man durch die Ausbringung eines Links die Inhalte der gelinkten Seite ggf. mit zu verantworten hat. Dies kann - so das Landesgericht - nur dadurch verhindert werden, dass man sich ausdrücklich von diesen Inhalten distanziert. Wir haben auf unserer Seite Links zu anderen Seiten im Internet gelegt. Für all diese Links gilt: Wir möchten ausdrücklich betonen, dass wir keinerlei Einfluss auf die Gestaltung und die Inhalte der gelinkten Seiten haben. Deshalb distanzieren wir uns hiermit ausdrücklich von allen Inhalten der gelinkten Seiten und wir machen uns deren Inhalte nicht zu Eigen. Diese Erklärung gilt für alle auf unserer Seite ausgebrachten Links.